createdAt,value
2023-03-30T00:00:00.802Z,3.45
2023-03-30T00:02:30.738Z,2.80
2023-03-30T00:05:03.661Z,2.65
2023-03-30T00:07:30.361Z,3.30
2023-03-30T00:09:57.100Z,2.97
2023-03-30T00:12:23.372Z,2.67
2023-03-30T00:14:49.955Z,3.03
2023-03-30T00:17:17.430Z,3.05
2023-03-30T00:19:43.924Z,2.88
2023-03-30T00:22:10.239Z,2.80
2023-03-30T00:24:36.660Z,2.60
2023-03-30T00:27:03.768Z,2.80
2023-03-30T00:29:30.087Z,2.80
2023-03-30T00:31:56.504Z,3.08
2023-03-30T00:34:22.883Z,2.92
2023-03-30T00:36:49.175Z,2.50
2023-03-30T00:39:18.793Z,2.83
2023-03-30T00:41:45.772Z,2.88
2023-03-30T00:44:30.926Z,2.83
2023-03-30T00:46:58.479Z,2.78
2023-03-30T00:49:25.108Z,3.30
2023-03-30T00:51:51.417Z,3.00
2023-03-30T00:54:19.210Z,2.38
2023-03-30T00:56:46.314Z,2.92
2023-03-30T00:59:13.046Z,2.83
2023-03-30T01:01:40.248Z,3.20
2023-03-30T01:04:07.667Z,2.70
2023-03-30T01:06:34.599Z,2.90
2023-03-30T01:09:00.833Z,2.47
2023-03-30T01:11:27.321Z,2.67
2023-03-30T01:13:58.293Z,2.67
2023-03-30T01:16:24.537Z,2.90
2023-03-30T01:18:56.023Z,2.80
2023-03-30T01:21:34.130Z,2.90
2023-03-30T01:24:20.069Z,2.67
2023-03-30T01:26:49.274Z,3.10
2023-03-30T01:29:18.575Z,2.78
2023-03-30T01:31:51.499Z,2.80
2023-03-30T01:34:30.811Z,2.95
2023-03-30T01:37:15.121Z,2.72
2023-03-30T01:39:41.817Z,2.83
2023-03-30T01:42:13.807Z,3.13
2023-03-30T01:45:00.422Z,2.47
2023-03-30T01:47:38.896Z,2.85
2023-03-30T01:50:05.194Z,2.83
2023-03-30T01:52:38.378Z,3.38
2023-03-30T01:55:08.628Z,2.90
2023-03-30T01:57:41.194Z,2.55
2023-03-30T02:00:13.917Z,2.58
2023-03-30T02:02:46.923Z,2.60
2023-03-30T02:05:18.107Z,2.60
2023-03-30T02:07:47.592Z,2.42
2023-03-30T02:10:14.276Z,2.85
2023-03-30T02:12:40.972Z,2.97
2023-03-30T02:15:08.782Z,2.95
2023-03-30T02:17:35.854Z,3.08
2023-03-30T02:20:02.246Z,3.10
2023-03-30T02:22:29.466Z,3.38
2023-03-30T02:24:56.472Z,3.30
2023-03-30T02:27:23.350Z,3.13
2023-03-30T02:29:49.613Z,2.92
2023-03-30T02:32:26.475Z,3.05
2023-03-30T02:35:11.597Z,3.47
2023-03-30T02:37:37.767Z,3.22
2023-03-30T02:40:13.147Z,3.65
2023-03-30T02:42:42.171Z,2.72
2023-03-30T02:45:15.254Z,2.83
2023-03-30T02:47:50.729Z,2.08
2023-03-30T02:50:37.278Z,2.40
2023-03-30T02:53:10.280Z,2.92
2023-03-30T02:55:38.602Z,2.53
2023-03-30T02:58:08.944Z,2.72
2023-03-30T03:00:41.654Z,2.40
2023-03-30T03:03:17.070Z,2.92
2023-03-30T03:05:43.488Z,2.63
2023-03-30T03:08:12.488Z,2.20
2023-03-30T03:10:38.767Z,2.60
2023-03-30T03:13:05.065Z,2.60
2023-03-30T03:15:31.854Z,2.13
2023-03-30T03:17:58.464Z,2.75
2023-03-30T03:20:28.520Z,2.53
2023-03-30T03:22:54.725Z,2.13
2023-03-30T03:25:20.965Z,2.40
2023-03-30T03:27:47.188Z,2.33
2023-03-30T03:30:13.500Z,2.50
2023-03-30T03:32:39.769Z,2.75
2023-03-30T03:35:06.117Z,2.95
2023-03-30T03:37:33.038Z,2.42
2023-03-30T03:39:59.251Z,2.80
2023-03-30T03:42:25.744Z,2.72
2023-03-30T03:44:51.989Z,2.58
2023-03-30T03:47:18.234Z,3.30
2023-03-30T03:49:44.584Z,2.70
2023-03-30T03:52:10.951Z,2.67
2023-03-30T03:54:37.232Z,2.38
2023-03-30T03:57:03.774Z,2.75
2023-03-30T03:59:30.020Z,2.85
2023-03-30T04:01:56.250Z,3.00
2023-03-30T04:04:22.552Z,2.90
2023-03-30T04:06:48.805Z,2.80
2023-03-30T04:09:15.218Z,2.92
2023-03-30T04:11:41.515Z,2.60
2023-03-30T04:14:07.741Z,3.17
2023-03-30T04:16:33.993Z,3.10
2023-03-30T04:19:00.248Z,3.15
2023-03-30T04:21:29.604Z,2.80
2023-03-30T04:23:55.845Z,3.17
2023-03-30T04:26:22.280Z,2.67
2023-03-30T04:28:48.503Z,2.75
2023-03-30T04:31:14.819Z,3.20
2023-03-30T04:34:01.562Z,2.70
2023-03-30T04:36:28.894Z,2.75
2023-03-30T04:39:01.017Z,2.65
2023-03-30T04:41:35.673Z,2.75
2023-03-30T04:44:06.305Z,2.90
2023-03-30T04:46:32.575Z,2.63
2023-03-30T04:48:58.839Z,2.80
2023-03-30T04:51:25.383Z,2.80
2023-03-30T04:53:51.605Z,3.58
2023-03-30T04:56:17.847Z,3.40
2023-03-30T04:58:44.221Z,4.00
2023-03-30T05:01:10.828Z,4.05
2023-03-30T05:03:37.132Z,3.85
2023-03-30T05:06:03.697Z,3.72
2023-03-30T05:08:30.131Z,4.13
2023-03-30T05:11:00.981Z,3.72
2023-03-30T05:13:27.203Z,3.72
2023-03-30T05:15:54.454Z,4.25
2023-03-30T05:18:20.866Z,4.18
2023-03-30T05:20:47.253Z,4.05
2023-03-30T05:23:13.753Z,3.88
2023-03-30T05:25:43.304Z,3.97
2023-03-30T05:28:09.507Z,4.38
2023-03-30T05:30:36.008Z,3.88
2023-03-30T05:33:02.307Z,3.78
2023-03-30T05:35:28.568Z,4.10
2023-03-30T05:37:55.148Z,4.15
2023-03-30T05:40:21.416Z,4.32
2023-03-30T05:42:47.632Z,3.63
2023-03-30T05:45:14.018Z,4.15
2023-03-30T05:47:40.259Z,3.78
2023-03-30T05:50:07.725Z,3.72
2023-03-30T05:52:33.952Z,4.00
2023-03-30T05:55:00.182Z,3.80
2023-03-30T05:57:27.014Z,4.25
2023-03-30T05:59:53.743Z,3.60
2023-03-30T06:02:20.068Z,4.05
2023-03-30T06:04:46.387Z,3.92
2023-03-30T06:07:12.654Z,3.13
2023-03-30T06:09:38.961Z,3.60
2023-03-30T06:12:05.267Z,3.40
2023-03-30T06:14:31.458Z,3.42
2023-03-30T06:16:57.836Z,3.22
2023-03-30T06:19:24.236Z,3.72
2023-03-30T06:21:50.514Z,2.95
2023-03-30T06:24:18.524Z,3.15
2023-03-30T06:26:44.709Z,3.70
2023-03-30T06:29:11.013Z,3.65
2023-03-30T06:31:37.243Z,3.42
2023-03-30T06:34:03.481Z,3.45
2023-03-30T06:36:44.786Z,3.85
2023-03-30T06:39:12.362Z,3.75
2023-03-30T06:41:38.573Z,3.28
2023-03-30T06:44:04.954Z,3.45
2023-03-30T06:46:31.245Z,3.00
2023-03-30T06:48:57.524Z,2.83
2023-03-30T06:51:23.974Z,2.90
2023-03-30T06:53:50.375Z,2.78
2023-03-30T06:56:16.854Z,2.83
2023-03-30T06:58:43.100Z,3.28
2023-03-30T07:01:10.316Z,3.10
2023-03-30T07:03:37.894Z,2.95
2023-03-30T07:06:04.426Z,3.70
2023-03-30T07:08:30.674Z,3.55
2023-03-30T07:10:56.902Z,3.70
2023-03-30T07:13:23.137Z,4.28
2023-03-30T07:15:49.440Z,4.18
2023-03-30T07:18:15.816Z,4.32
2023-03-30T07:20:42.368Z,3.70
2023-03-30T07:23:08.805Z,3.40
2023-03-30T07:25:35.034Z,3.63
2023-03-30T07:28:02.045Z,4.10
2023-03-30T07:30:28.454Z,3.58
2023-03-30T07:32:56.912Z,3.50
2023-03-30T07:35:24.708Z,3.42
2023-03-30T07:37:51.275Z,3.70
2023-03-30T07:40:17.937Z,3.03
2023-03-30T07:42:44.197Z,3.17
2023-03-30T07:45:10.823Z,2.55
2023-03-30T07:47:37.409Z,2.80
2023-03-30T07:50:03.736Z,2.53
2023-03-30T07:52:29.923Z,2.13
2023-03-30T07:54:56.196Z,1.83
2023-03-30T07:57:22.553Z,1.90
2023-03-30T07:59:49.049Z,1.65
2023-03-30T08:02:15.367Z,2.10
2023-03-30T08:04:41.848Z,1.88
2023-03-30T08:07:08.144Z,1.77
2023-03-30T08:09:35.810Z,2.22
2023-03-30T08:12:02.912Z,2.47
2023-03-30T08:14:29.227Z,1.88
2023-03-30T08:16:56.222Z,1.80
2023-03-30T08:19:24.169Z,2.08
2023-03-30T08:21:50.516Z,2.10
2023-03-30T08:24:17.064Z,2.65
2023-03-30T08:26:43.489Z,1.90
2023-03-30T08:29:09.863Z,2.13
2023-03-30T08:31:37.341Z,2.13
2023-03-30T08:34:04.481Z,1.88
2023-03-30T08:36:31.130Z,1.83
2023-03-30T08:38:57.804Z,1.83
2023-03-30T08:41:29.920Z,2.03
2023-03-30T08:43:58.583Z,2.10
2023-03-30T08:46:25.017Z,1.88
2023-03-30T08:48:52.330Z,1.75
2023-03-30T08:51:27.399Z,2.50
2023-03-30T08:54:01.445Z,1.85
2023-03-30T08:56:30.669Z,2.25
2023-03-30T08:59:05.939Z,2.10
2023-03-30T09:01:51.098Z,2.30
2023-03-30T09:04:27.046Z,1.90
2023-03-30T09:06:59.026Z,2.33
2023-03-30T09:09:27.681Z,1.83
2023-03-30T09:12:02.375Z,2.20
2023-03-30T09:14:40.964Z,1.95
2023-03-30T09:17:11.898Z,2.47
2023-03-30T09:19:45.838Z,2.13
2023-03-30T09:22:13.364Z,2.38
2023-03-30T09:24:40.776Z,2.40
2023-03-30T09:27:13.439Z,2.58
2023-03-30T09:29:41.710Z,2.30
2023-03-30T09:32:16.419Z,2.55
2023-03-30T09:34:45.970Z,2.00
2023-03-30T09:37:13.124Z,1.98
2023-03-30T09:39:39.854Z,2.22
2023-03-30T09:42:21.117Z,1.35
2023-03-30T09:44:49.809Z,1.30
2023-03-30T09:47:24.763Z,1.63
2023-03-30T09:49:58.854Z,1.27
2023-03-30T09:52:26.835Z,1.40
2023-03-30T09:54:53.140Z,1.42
2023-03-30T09:57:24.098Z,1.85
2023-03-30T09:59:52.658Z,1.70
2023-03-30T10:02:20.106Z,1.63
2023-03-30T10:04:52.496Z,1.70
2023-03-30T10:07:21.790Z,1.73
2023-03-30T10:09:48.029Z,1.83
2023-03-30T10:12:14.863Z,1.67
2023-03-30T10:14:41.428Z,1.30
2023-03-30T10:17:07.947Z,1.60
2023-03-30T10:19:37.197Z,1.35
2023-03-30T10:22:13.497Z,1.80
2023-03-30T10:24:48.391Z,1.00
2023-03-30T10:27:15.610Z,1.20
2023-03-30T10:29:45.848Z,1.75
2023-03-30T10:32:15.596Z,1.23
2023-03-30T10:34:43.525Z,1.17
2023-03-30T10:37:16.049Z,1.30
2023-03-30T10:39:44.152Z,1.42
2023-03-30T10:42:15.843Z,1.77
2023-03-30T10:44:47.596Z,1.00
2023-03-30T10:47:16.944Z,1.15
2023-03-30T10:49:46.424Z,1.10
2023-03-30T10:52:21.672Z,1.10
2023-03-30T10:54:55.436Z,1.27
2023-03-30T10:57:24.690Z,1.00
2023-03-30T11:00:12.905Z,1.08
2023-03-30T11:02:39.154Z,0.80
2023-03-30T11:05:09.405Z,0.90
2023-03-30T11:07:39.078Z,0.90
2023-03-30T11:10:14.732Z,0.55
2023-03-30T11:12:42.577Z,0.88
2023-03-30T11:15:12.152Z,1.27
2023-03-30T11:17:53.459Z,1.35
2023-03-30T11:20:21.484Z,1.23
2023-03-30T11:22:50.958Z,1.60
2023-03-30T11:25:22.116Z,1.40
2023-03-30T11:27:58.098Z,1.85
2023-03-30T11:30:29.779Z,1.90
2023-03-30T11:33:05.108Z,1.30
2023-03-30T11:35:36.233Z,2.00
2023-03-30T11:38:06.654Z,1.90
2023-03-30T11:40:43.645Z,1.60
2023-03-30T11:43:13.858Z,1.67
2023-03-30T11:45:46.216Z,1.70
2023-03-30T11:48:20.974Z,2.03
2023-03-30T11:51:11.806Z,1.98
2023-03-30T11:53:44.246Z,1.85
2023-03-30T11:56:12.874Z,1.77
2023-03-30T11:58:43.620Z,2.22
2023-03-30T12:01:28.549Z,1.48
2023-03-30T12:04:03.735Z,1.13
2023-03-30T12:06:34.477Z,1.02
2023-03-30T12:09:13.029Z,0.87
2023-03-30T12:11:44.423Z,0.70
2023-03-30T12:14:19.885Z,1.13
2023-03-30T12:16:49.441Z,0.70
2023-03-30T12:19:18.918Z,0.65
2023-03-30T12:21:49.822Z,0.95
2023-03-30T12:24:34.759Z,1.30
2023-03-30T12:27:06.124Z,1.10
2023-03-30T12:32:28.479Z,1.67
2023-03-30T12:34:56.632Z,1.52
2023-03-30T12:37:26.528Z,1.65
2023-03-30T12:39:59.489Z,1.40
2023-03-30T12:42:27.635Z,1.50
2023-03-30T12:45:04.160Z,1.48
2023-03-30T12:47:33.509Z,1.45
2023-03-30T12:50:00.665Z,1.60
2023-03-30T12:52:45.810Z,4.30
2023-03-30T12:55:18.644Z,6.30
2023-03-30T12:57:53.818Z,2.80
2023-03-30T13:00:26.357Z,1.73
2023-03-30T13:02:54.902Z,2.47
2023-03-30T13:05:26.633Z,1.88
2023-03-30T13:10:31.578Z,2.92
2023-03-30T13:12:58.756Z,2.28
2023-03-30T13:15:43.751Z,5.40
2023-03-30T13:18:10.009Z,3.53
2023-03-30T13:20:56.265Z,2.53
2023-03-30T13:23:22.529Z,2.25
2023-03-30T13:25:49.686Z,1.67
2023-03-30T13:28:34.852Z,18.65
2023-03-30T13:31:06.024Z,6.65
2023-03-30T13:33:35.354Z,2.80
2023-03-30T13:36:09.042Z,1.95
2023-03-30T13:38:59.548Z,1.88
2023-03-30T13:42:04.181Z,1.75
2023-03-30T13:44:48.705Z,1.60
2023-03-30T13:47:21.106Z,1.58
2023-03-30T13:49:50.190Z,1.30
2023-03-30T13:52:18.405Z,1.33
2023-03-30T13:54:46.045Z,1.38
2023-03-30T13:57:23.007Z,0.95
2023-03-30T14:00:01.590Z,0.90
2023-03-30T14:02:29.448Z,0.93
2023-03-30T14:05:09.890Z,1.00
2023-03-30T14:07:40.581Z,0.98
2023-03-30T14:10:11.490Z,1.50
2023-03-30T14:12:39.723Z,1.40
2023-03-30T14:15:15.749Z,1.40
2023-03-30T14:17:45.861Z,1.30
2023-03-30T14:20:18.533Z,1.33
2023-03-30T14:22:46.092Z,1.58
2023-03-30T14:25:32.669Z,1.60
2023-03-30T14:28:03.034Z,2.60
2023-03-30T14:30:29.496Z,1.70
2023-03-30T14:33:12.213Z,1.88
2023-03-30T14:35:43.600Z,1.95
2023-03-30T14:38:17.191Z,1.67
2023-03-30T14:40:43.918Z,1.83
2023-03-30T14:43:14.718Z,1.45
2023-03-30T14:45:42.074Z,1.90
2023-03-30T14:48:16.059Z,1.90
2023-03-30T14:50:42.408Z,2.22
2023-03-30T14:53:10.120Z,2.42
2023-03-30T14:55:36.637Z,2.42
2023-03-30T14:58:03.221Z,1.90
2023-03-30T15:00:31.147Z,2.08
2023-03-30T15:03:00.993Z,1.95
2023-03-30T15:05:32.201Z,2.65
2023-03-30T15:07:58.463Z,2.25
2023-03-30T15:10:44.924Z,1.90
2023-03-30T15:13:17.982Z,2.22
2023-03-30T15:15:44.471Z,2.38
2023-03-30T15:18:17.524Z,2.17
2023-03-30T15:20:43.769Z,2.22
2023-03-30T15:23:12.855Z,2.30
2023-03-30T15:25:39.383Z,1.60
2023-03-30T15:28:07.678Z,2.25
2023-03-30T15:30:36.532Z,2.50
2023-03-30T15:33:03.381Z,1.80
2023-03-30T15:35:34.637Z,1.98
2023-03-30T15:38:02.485Z,2.25
2023-03-30T15:40:28.836Z,1.45
2023-03-30T15:43:13.335Z,1.88
2023-03-30T15:45:40.054Z,1.00
2023-03-30T15:48:09.688Z,1.45
2023-03-30T15:50:39.310Z,0.98
2023-03-30T15:53:05.981Z,1.40
2023-03-30T15:55:33.155Z,1.42
2023-03-30T15:57:59.523Z,1.30
2023-03-30T16:00:29.382Z,1.10
2023-03-30T16:02:58.107Z,1.48
2023-03-30T16:05:32.129Z,1.27
2023-03-30T16:07:58.499Z,1.55
2023-03-30T16:10:29.076Z,1.00
2023-03-30T16:12:56.071Z,1.33
2023-03-30T16:15:23.859Z,1.70
2023-03-30T16:17:50.479Z,1.70
2023-03-30T16:20:18.107Z,1.73
2023-03-30T16:22:44.612Z,1.55
2023-03-30T16:25:11.055Z,1.42
2023-03-30T16:27:37.850Z,1.88
2023-03-30T16:30:16.178Z,1.90
2023-03-30T16:32:42.610Z,2.00
2023-03-30T16:35:08.930Z,2.10
2023-03-30T16:37:35.177Z,1.60
2023-03-30T16:40:01.467Z,1.60
2023-03-30T16:42:27.716Z,1.10
2023-03-30T16:44:54.182Z,0.98
2023-03-30T16:47:21.677Z,1.35
2023-03-30T16:49:47.907Z,0.80
2023-03-30T16:52:14.094Z,0.90
2023-03-30T16:54:40.430Z,1.02
2023-03-30T16:57:09.329Z,1.13
2023-03-30T16:59:36.196Z,0.65
2023-03-30T17:02:03.298Z,0.88
2023-03-30T17:04:29.486Z,0.85
2023-03-30T17:06:55.774Z,0.98
2023-03-30T17:09:22.127Z,0.85
2023-03-30T17:11:48.713Z,0.90
2023-03-30T17:14:16.129Z,1.38
2023-03-30T17:16:42.330Z,0.85
2023-03-30T17:19:12.360Z,1.00
2023-03-30T17:21:40.041Z,1.38
2023-03-30T17:24:06.457Z,1.15
2023-03-30T17:26:32.662Z,1.20
2023-03-30T17:28:58.843Z,1.10
2023-03-30T17:31:25.084Z,1.63
2023-03-30T17:33:51.312Z,1.30
2023-03-30T17:36:21.289Z,1.40
2023-03-30T17:38:47.883Z,1.50
2023-03-30T17:41:15.266Z,1.27
2023-03-30T17:43:43.997Z,1.38
2023-03-30T17:46:11.291Z,1.70
2023-03-30T17:48:37.546Z,1.52
2023-03-30T17:51:03.928Z,1.60
2023-03-30T17:53:30.544Z,1.63
2023-03-30T17:55:56.801Z,1.70
2023-03-30T17:58:24.320Z,1.45
2023-03-30T18:00:51.325Z,1.80
2023-03-30T18:03:19.207Z,1.58
2023-03-30T18:05:46.369Z,1.83
2023-03-30T18:08:17.168Z,1.30
2023-03-30T18:10:45.453Z,1.85
2023-03-30T18:13:11.687Z,1.70
2023-03-30T18:15:37.912Z,1.58
2023-03-30T18:18:04.286Z,1.50
2023-03-30T18:20:35.638Z,1.65
2023-03-30T18:23:02.248Z,2.17
2023-03-30T18:25:32.335Z,1.65
2023-03-30T18:27:59.538Z,2.10
2023-03-30T18:30:27.562Z,1.77
2023-03-30T18:32:54.357Z,1.50
2023-03-30T18:35:21.302Z,1.65
2023-03-30T18:37:47.926Z,1.92
2023-03-30T18:40:19.107Z,1.83
2023-03-30T18:42:45.691Z,1.60
2023-03-30T18:45:14.233Z,1.90
2023-03-30T18:47:40.517Z,1.40
2023-03-30T18:50:11.774Z,1.75
2023-03-30T18:52:37.993Z,1.85
2023-03-30T18:55:05.349Z,1.75
2023-03-30T18:57:31.607Z,2.15
2023-03-30T18:59:57.844Z,1.48
2023-03-30T19:02:24.185Z,1.73
2023-03-30T19:04:51.241Z,1.75
2023-03-30T19:07:17.459Z,1.50
2023-03-30T19:09:45.650Z,1.52
2023-03-30T19:12:12.349Z,1.45
2023-03-30T19:14:38.539Z,1.38
2023-03-30T19:17:04.807Z,1.70
2023-03-30T19:19:31.022Z,1.70
2023-03-30T19:21:58.720Z,1.50
2023-03-30T19:24:25.185Z,1.42
2023-03-30T19:26:51.488Z,1.30
2023-03-30T19:29:17.730Z,1.38
2023-03-30T19:31:44.910Z,1.20
2023-03-30T19:34:11.178Z,1.77
2023-03-30T19:36:37.383Z,1.48
2023-03-30T19:39:03.730Z,1.60
2023-03-30T19:41:29.998Z,1.35
2023-03-30T19:43:56.192Z,1.35
2023-03-30T19:46:22.478Z,1.42
2023-03-30T19:48:49.336Z,1.65
2023-03-30T19:51:16.622Z,1.60
2023-03-30T19:53:43.613Z,1.50
2023-03-30T19:56:10.942Z,1.23
2023-03-30T19:58:37.539Z,1.60
2023-03-30T20:01:04.582Z,1.60
2023-03-30T20:03:31.043Z,1.90
2023-03-30T20:05:57.743Z,1.70
2023-03-30T20:08:25.039Z,1.85
2023-03-30T20:10:51.715Z,1.73
2023-03-30T20:13:21.711Z,1.60
2023-03-30T20:15:48.174Z,1.63
2023-03-30T20:18:14.613Z,1.75
2023-03-30T20:20:41.303Z,1.45
2023-03-30T20:23:07.489Z,1.50
2023-03-30T20:25:33.672Z,2.15
2023-03-30T20:27:59.865Z,1.35
2023-03-30T20:30:26.057Z,2.15
2023-03-30T20:33:06.913Z,1.98
2023-03-30T20:35:35.606Z,2.00
2023-03-30T20:38:04.318Z,1.63
2023-03-30T20:40:31.436Z,1.88
2023-03-30T20:43:02.994Z,2.20
2023-03-30T20:47:55.462Z,1.77
2023-03-30T20:50:21.666Z,2.10
2023-03-30T20:52:47.894Z,2.17
2023-03-30T20:55:14.077Z,1.92
2023-03-30T20:57:40.282Z,2.08
2023-03-30T21:00:09.500Z,2.28
2023-03-30T21:02:35.908Z,1.88
2023-03-30T21:05:02.151Z,2.10
2023-03-30T21:07:29.653Z,2.08
2023-03-30T21:09:55.911Z,1.88
2023-03-30T21:12:22.106Z,1.85
2023-03-30T21:14:48.328Z,2.55
2023-03-30T21:17:14.680Z,2.13
2023-03-30T21:19:41.204Z,2.05
2023-03-30T21:22:07.741Z,1.70
2023-03-30T21:24:34.685Z,1.67
2023-03-30T21:27:00.929Z,1.67
2023-03-30T21:29:27.181Z,1.90
2023-03-30T21:31:53.432Z,1.95
2023-03-30T21:34:20.616Z,2.00
2023-03-30T21:36:46.883Z,2.08
2023-03-30T21:39:13.396Z,2.17
2023-03-30T21:41:39.599Z,1.63
2023-03-30T21:44:05.921Z,1.90
2023-03-30T21:46:32.212Z,1.67
2023-03-30T21:48:58.549Z,2.00
2023-03-30T21:51:26.320Z,2.15
2023-03-30T21:53:53.272Z,1.85
2023-03-30T21:56:22.141Z,1.95
2023-03-30T21:58:48.659Z,2.15
2023-03-30T22:01:15.333Z,1.85
2023-03-30T22:03:42.161Z,1.75
2023-03-30T22:06:10.665Z,1.85
2023-03-30T22:08:37.010Z,2.30
2023-03-30T22:11:05.343Z,2.35
2023-03-30T22:13:31.624Z,1.80
2023-03-30T22:15:57.856Z,2.40
2023-03-30T22:18:24.374Z,1.80
2023-03-30T22:20:51.027Z,1.70
2023-03-30T22:23:17.297Z,1.48
2023-03-30T22:25:43.551Z,1.75
2023-03-30T22:28:09.840Z,1.88
2023-03-30T22:30:39.885Z,1.90
2023-03-30T22:33:06.138Z,2.05
2023-03-30T22:35:36.619Z,2.10
2023-03-30T22:38:02.893Z,1.95
2023-03-30T22:40:29.075Z,1.80
2023-03-30T22:42:55.392Z,1.85
2023-03-30T22:45:21.594Z,2.33
2023-03-30T22:47:47.926Z,1.65
2023-03-30T22:50:14.210Z,1.55
2023-03-30T22:52:40.426Z,1.70
2023-03-30T22:55:06.955Z,1.83
2023-03-30T22:57:33.253Z,1.58
2023-03-30T22:59:59.466Z,1.40
2023-03-30T23:02:25.827Z,1.40
2023-03-30T23:04:52.781Z,1.25
2023-03-30T23:07:19.070Z,1.40
2023-03-30T23:09:47.393Z,1.52
2023-03-30T23:12:13.877Z,1.77
2023-03-30T23:14:42.941Z,1.85
2023-03-30T23:17:09.538Z,2.38
2023-03-30T23:19:36.458Z,2.10
2023-03-30T23:22:03.106Z,1.95
2023-03-30T23:24:29.318Z,1.83
2023-03-30T23:26:55.682Z,2.33
2023-03-30T23:29:21.967Z,1.80
2023-03-30T23:31:50.607Z,1.92
2023-03-30T23:34:17.392Z,2.35
2023-03-30T23:36:43.611Z,1.65
2023-03-30T23:39:10.139Z,1.60
2023-03-30T23:41:36.350Z,1.55
2023-03-30T23:44:02.579Z,1.70
2023-03-30T23:46:29.624Z,2.15
2023-03-30T23:48:55.857Z,1.77
2023-03-30T23:51:22.072Z,1.67
2023-03-30T23:53:48.296Z,1.90
2023-03-30T23:56:17.177Z,1.67
2023-03-30T23:58:43.909Z,2.00
